createdAt,value
2018-03-03T00:01:49.978Z,20.77
2018-03-03T00:03:52.428Z,22.15
2018-03-03T00:05:54.909Z,21.02
2018-03-03T00:07:57.393Z,20.50
2018-03-03T00:09:59.834Z,21.70
2018-03-03T00:12:02.328Z,21.17
2018-03-03T00:14:04.794Z,21.25
2018-03-03T00:16:07.249Z,20.20
2018-03-03T00:18:09.772Z,19.90
2018-03-03T00:20:12.368Z,20.67
2018-03-03T00:24:53.591Z,18.90
2018-03-03T00:26:56.019Z,19.37
2018-03-03T00:28:58.567Z,20.00
2018-03-03T00:31:01.162Z,20.00
2018-03-03T00:33:03.648Z,19.35
2018-03-03T00:35:06.147Z,21.55
2018-03-03T00:37:08.744Z,21.23
2018-03-03T00:39:11.192Z,21.20
2018-03-03T00:41:13.667Z,20.67
2018-03-03T00:43:16.173Z,20.85
2018-03-03T00:45:18.717Z,21.85
2018-03-03T00:47:21.202Z,20.73
2018-03-03T00:49:23.701Z,22.23
2018-03-03T00:51:26.193Z,22.33
2018-03-03T00:53:28.703Z,21.52
2018-03-03T00:55:31.217Z,21.05
2018-03-03T00:57:33.729Z,21.33
2018-03-03T00:59:36.165Z,20.92
2018-03-03T01:01:38.659Z,22.42
2018-03-03T01:03:41.152Z,21.12
2018-03-03T01:05:43.647Z,21.58
2018-03-03T01:07:46.107Z,21.50
2018-03-03T01:09:48.632Z,22.00
2018-03-03T01:11:51.133Z,23.33
2018-03-03T01:13:53.614Z,22.30
2018-03-03T01:15:56.119Z,20.83
2018-03-03T01:17:58.704Z,21.17
2018-03-03T01:20:01.197Z,21.02
2018-03-03T01:22:03.793Z,24.63
2018-03-03T01:24:06.243Z,23.12
2018-03-03T01:26:08.712Z,24.50
2018-03-03T01:28:11.178Z,22.27
2018-03-03T01:30:13.668Z,21.05
2018-03-03T01:32:16.125Z,21.52
2018-03-03T01:34:18.699Z,21.65
2018-03-03T01:36:21.163Z,22.85
2018-03-03T01:38:23.635Z,22.67
2018-03-03T01:40:26.208Z,22.42
2018-03-03T01:42:28.728Z,20.33
2018-03-03T01:44:31.218Z,22.42
2018-03-03T01:46:33.685Z,23.85
2018-03-03T01:48:36.207Z,22.23
2018-03-03T01:50:38.695Z,22.05
2018-03-03T01:52:41.153Z,22.40
2018-03-03T01:54:43.600Z,21.25
2018-03-03T01:56:46.179Z,23.12
2018-03-03T01:58:48.680Z,20.27
2018-03-03T02:00:51.173Z,22.52
2018-03-03T02:02:53.770Z,22.75
2018-03-03T02:04:56.264Z,22.85
2018-03-03T02:06:58.700Z,21.25
2018-03-03T02:09:01.238Z,23.38
2018-03-03T02:11:03.733Z,22.80
2018-03-03T02:13:06.243Z,20.95
2018-03-03T02:15:08.833Z,23.20
2018-03-03T02:17:11.424Z,21.75
2018-03-03T02:19:13.855Z,23.67
2018-03-03T02:21:16.336Z,22.50
2018-03-03T02:23:18.780Z,21.60
2018-03-03T02:25:21.281Z,22.60
2018-03-03T02:27:23.743Z,22.05
2018-03-03T02:29:26.269Z,21.50
2018-03-03T02:31:28.761Z,21.15
2018-03-03T02:33:31.206Z,22.25
2018-03-03T02:35:33.750Z,23.38
2018-03-03T02:37:36.349Z,20.15
2018-03-03T02:39:38.815Z,22.92
2018-03-03T02:41:41.335Z,22.92
2018-03-03T02:43:43.786Z,21.70
2018-03-03T02:45:46.258Z,23.08
2018-03-03T02:47:48.913Z,20.73
2018-03-03T02:49:51.390Z,22.92
2018-03-03T02:51:53.830Z,21.80
2018-03-03T02:53:56.391Z,22.20
2018-03-03T02:55:58.996Z,20.58
2018-03-03T02:58:01.480Z,23.52
2018-03-03T03:00:03.941Z,23.40
2018-03-03T03:02:06.411Z,22.00
2018-03-03T03:04:08.889Z,22.85
2018-03-03T03:06:11.357Z,21.52
2018-03-03T03:08:13.818Z,22.45
2018-03-03T03:10:16.342Z,22.48
2018-03-03T03:12:18.818Z,22.85
2018-03-03T03:14:21.289Z,22.05
2018-03-03T03:16:23.739Z,22.30
2018-03-03T03:18:26.265Z,22.70
2018-03-03T03:20:28.716Z,23.27
2018-03-03T03:22:31.237Z,21.33
2018-03-03T03:24:33.701Z,21.33
2018-03-03T03:26:36.196Z,22.92
2018-03-03T03:28:38.783Z,22.75
2018-03-03T03:30:41.267Z,22.52
2018-03-03T03:32:43.864Z,21.25
2018-03-03T03:34:46.330Z,20.67
2018-03-03T03:36:48.789Z,22.95
2018-03-03T03:38:51.303Z,21.25
2018-03-03T03:40:53.740Z,21.42
2018-03-03T03:42:56.181Z,22.42
2018-03-03T03:44:58.640Z,21.65
2018-03-03T03:47:01.210Z,21.60
2018-03-03T03:49:03.807Z,22.67
2018-03-03T03:51:06.401Z,22.20
2018-03-03T03:53:08.855Z,23.55
2018-03-03T03:55:11.305Z,21.62
2018-03-03T03:57:13.808Z,22.37
2018-03-03T03:59:16.276Z,22.87
2018-03-03T04:01:18.800Z,22.83
2018-03-03T04:03:21.256Z,23.20
2018-03-03T04:05:23.706Z,23.12
2018-03-03T04:07:26.247Z,21.42
2018-03-03T04:09:28.736Z,22.85
2018-03-03T04:11:31.160Z,22.13
2018-03-03T04:13:33.730Z,22.27
2018-03-03T04:15:36.229Z,22.73
2018-03-03T04:17:38.819Z,21.30
2018-03-03T04:19:41.307Z,22.62
2018-03-03T04:21:43.812Z,22.27
2018-03-03T04:23:46.291Z,22.17
2018-03-03T04:25:48.757Z,23.67
2018-03-03T04:27:51.201Z,23.00
2018-03-03T04:29:53.701Z,21.70
2018-03-03T04:31:56.164Z,22.83
2018-03-03T04:33:58.634Z,22.90
2018-03-03T04:36:01.115Z,21.20
2018-03-03T04:38:03.641Z,20.48
2018-03-03T04:40:06.140Z,22.02
2018-03-03T04:42:08.616Z,22.27
2018-03-03T04:44:11.063Z,22.10
2018-03-03T04:46:13.571Z,22.65
2018-03-03T04:48:16.072Z,21.20
2018-03-03T04:50:18.601Z,19.65
2018-03-03T04:52:21.040Z,21.45
2018-03-03T04:54:23.515Z,20.67
2018-03-03T04:56:25.985Z,20.95
2018-03-03T04:58:33.081Z,21.92
2018-03-03T05:00:36.432Z,21.77
2018-03-03T05:02:42.507Z,19.67
2018-03-03T05:04:50.431Z,21.50
2018-03-03T05:09:30.576Z,20.55
2018-03-03T05:11:33.062Z,19.50
2018-03-03T05:13:36.410Z,20.98
2018-03-03T05:15:44.396Z,21.37
2018-03-03T05:18:02.641Z,21.52
2018-03-03T05:20:10.817Z,19.50
2018-03-03T05:22:19.004Z,19.35
2018-03-03T05:24:36.318Z,19.30
2018-03-03T05:26:44.446Z,20.73
2018-03-03T05:28:53.281Z,20.50
2018-03-03T05:31:01.307Z,20.90
2018-03-03T05:33:09.256Z,21.30
2018-03-03T05:35:30.586Z,20.20
2018-03-03T05:37:39.772Z,19.60
2018-03-03T05:39:47.817Z,21.15
2018-03-03T05:41:55.811Z,21.33
2018-03-03T05:44:03.871Z,21.40
2018-03-03T05:46:26.163Z,20.25
2018-03-03T05:48:34.182Z,21.10
2018-03-03T05:50:42.387Z,19.65
2018-03-03T05:55:34.963Z,21.02
2018-03-03T05:57:43.010Z,20.95
2018-03-03T05:59:51.120Z,20.98
2018-03-03T06:01:59.133Z,21.52
2018-03-03T06:04:06.593Z,20.27
2018-03-03T06:06:24.673Z,21.37
2018-03-03T06:08:44.778Z,20.02
2018-03-03T06:10:49.851Z,19.83
2018-03-03T06:12:52.318Z,22.02
2018-03-03T06:14:54.853Z,20.85
2018-03-03T06:16:57.307Z,20.50
2018-03-03T06:18:59.818Z,19.67
2018-03-03T06:21:02.288Z,20.77
2018-03-03T06:23:04.736Z,19.87
2018-03-03T06:25:07.323Z,19.48
2018-03-03T06:27:10.232Z,20.73
2018-03-03T06:29:12.711Z,20.55
2018-03-03T06:31:15.137Z,20.20
2018-03-03T06:33:17.674Z,20.55
2018-03-03T06:35:20.129Z,19.45
2018-03-03T06:37:22.652Z,17.40
2018-03-03T06:39:25.103Z,19.12
2018-03-03T06:41:27.582Z,19.95
2018-03-03T06:43:30.166Z,21.02
2018-03-03T06:45:32.657Z,19.65
2018-03-03T06:47:35.228Z,20.83
2018-03-03T06:49:37.659Z,21.60
2018-03-03T06:51:40.112Z,20.40
2018-03-03T06:53:42.628Z,20.12
2018-03-03T06:55:45.231Z,21.37
2018-03-03T06:57:47.732Z,20.73
2018-03-03T06:59:50.192Z,20.65
2018-03-03T07:01:52.652Z,20.73
2018-03-03T07:03:55.138Z,21.27
2018-03-03T07:05:57.604Z,22.35
2018-03-03T07:08:00.117Z,23.05
2018-03-03T07:10:02.613Z,23.42
2018-03-03T07:12:05.062Z,22.83
2018-03-03T07:14:07.557Z,19.45
2018-03-03T07:16:10.093Z,21.90
2018-03-03T07:18:12.629Z,21.10
2018-03-03T07:20:15.066Z,21.50
2018-03-03T07:22:17.627Z,20.15
2018-03-03T07:24:20.062Z,23.20
2018-03-03T07:26:22.537Z,21.30
2018-03-03T07:28:25.159Z,19.48
2018-03-03T07:30:27.712Z,19.95
2018-03-03T07:32:30.185Z,21.15
2018-03-03T07:34:32.663Z,21.83
2018-03-03T07:36:35.129Z,20.90
2018-03-03T07:38:37.703Z,19.80
2018-03-03T07:40:40.165Z,22.27
2018-03-03T07:42:42.650Z,23.08
2018-03-03T07:44:45.142Z,21.45
2018-03-03T07:46:47.563Z,20.60
2018-03-03T07:48:50.030Z,22.30
2018-03-03T07:50:52.538Z,22.15
2018-03-03T07:52:55.027Z,21.17
2018-03-03T07:54:57.534Z,20.95
2018-03-03T07:57:12.788Z,23.17
2018-03-03T07:59:15.314Z,22.10
2018-03-03T08:01:17.782Z,21.58
2018-03-03T08:03:20.294Z,21.62
2018-03-03T08:05:22.728Z,22.75
2018-03-03T08:07:25.200Z,22.87
2018-03-03T08:09:27.656Z,22.50
2018-03-03T08:11:30.158Z,22.10
2018-03-03T08:13:32.743Z,20.80
2018-03-03T08:15:35.250Z,20.70
2018-03-03T08:17:37.759Z,18.92
2018-03-03T08:19:40.231Z,21.27
2018-03-03T08:21:42.728Z,22.08
2018-03-03T08:23:45.208Z,23.58
2018-03-03T08:25:47.721Z,23.70
2018-03-03T08:27:50.219Z,22.75
2018-03-03T08:29:52.707Z,24.23
2018-03-03T08:31:55.189Z,22.30
2018-03-03T08:33:57.693Z,21.83
2018-03-03T08:36:00.185Z,23.60
2018-03-03T08:38:02.675Z,21.90
2018-03-03T08:40:05.278Z,21.70
2018-03-03T08:42:07.767Z,19.80
2018-03-03T08:44:10.268Z,23.90
2018-03-03T08:46:12.749Z,23.02
2018-03-03T08:48:15.235Z,23.67
2018-03-03T08:50:17.728Z,24.77
2018-03-03T08:52:20.325Z,24.42
2018-03-03T08:54:22.821Z,25.83
2018-03-03T08:56:25.285Z,24.20
2018-03-03T08:58:27.975Z,25.80
2018-03-03T09:00:30.435Z,24.35
2018-03-03T09:02:32.900Z,25.42
2018-03-03T09:04:35.415Z,23.35
2018-03-03T09:06:37.911Z,23.50
2018-03-03T09:08:40.405Z,22.00
2018-03-03T09:10:42.899Z,24.05
2018-03-03T09:12:45.359Z,24.27
2018-03-03T09:14:47.956Z,24.17
2018-03-03T09:16:50.561Z,24.52
2018-03-03T09:18:53.052Z,23.85
2018-03-03T09:20:55.528Z,22.67
2018-03-03T09:22:58.138Z,24.45
2018-03-03T09:25:00.574Z,23.20
2018-03-03T09:27:03.028Z,22.05
2018-03-03T09:29:05.537Z,18.92
2018-03-03T09:31:08.054Z,23.35
2018-03-03T09:33:10.510Z,21.77
2018-03-03T09:35:12.995Z,24.08
2018-03-03T09:37:15.492Z,23.92
2018-03-03T09:39:17.976Z,22.80
2018-03-03T09:41:20.440Z,24.60
2018-03-03T09:43:22.907Z,21.12
2018-03-03T09:45:25.373Z,24.40
2018-03-03T09:47:27.869Z,24.40
2018-03-03T09:49:30.413Z,24.10
2018-03-03T09:51:32.916Z,25.08
2018-03-03T09:53:35.418Z,26.73
2018-03-03T09:55:37.890Z,26.15
2018-03-03T09:57:40.516Z,27.58
2018-03-03T09:59:43.014Z,22.73
2018-03-03T10:01:52.159Z,24.95
2018-03-03T10:03:47.982Z,20.60
2018-03-03T10:05:50.566Z,21.23
2018-03-03T10:07:53.024Z,25.33
2018-03-03T10:09:55.506Z,26.55
2018-03-03T10:11:57.946Z,25.45
2018-03-03T10:14:00.420Z,25.73
2018-03-03T10:16:02.915Z,22.42
2018-03-03T10:18:05.402Z,23.25
2018-03-03T10:20:07.923Z,19.42
2018-03-03T10:22:10.436Z,25.35
2018-03-03T10:24:12.917Z,24.33
2018-03-03T10:26:15.413Z,27.52
2018-03-03T10:28:17.866Z,26.73
2018-03-03T10:30:20.356Z,23.70
2018-03-03T10:32:22.867Z,23.90
2018-03-03T10:34:25.396Z,25.70
2018-03-03T10:36:27.912Z,24.60
2018-03-03T10:38:30.457Z,28.10
2018-03-03T10:40:32.973Z,26.83
2018-03-03T10:42:35.441Z,26.00
2018-03-03T10:44:37.972Z,27.65
2018-03-03T10:46:40.564Z,25.17
2018-03-03T10:48:43.065Z,26.92
2018-03-03T10:50:45.576Z,23.92
2018-03-03T10:52:48.084Z,28.10
2018-03-03T10:54:50.626Z,25.12
2018-03-03T10:56:53.095Z,26.17
2018-03-03T10:58:55.586Z,24.65
2018-03-03T11:00:58.109Z,27.20
2018-03-03T11:03:00.624Z,25.27
2018-03-03T11:05:03.067Z,26.40
2018-03-03T11:07:05.566Z,28.02
2018-03-03T11:09:08.088Z,26.00
2018-03-03T11:11:10.549Z,28.10
2018-03-03T11:13:13.070Z,27.13
2018-03-03T11:15:15.688Z,27.25
2018-03-03T11:17:18.194Z,26.80
2018-03-03T11:19:20.734Z,25.08
2018-03-03T11:21:24.271Z,27.65
2018-03-03T11:23:26.766Z,26.60
2018-03-03T11:25:29.247Z,27.35
2018-03-03T11:27:31.774Z,26.12
2018-03-03T11:29:34.278Z,27.98
2018-03-03T11:31:36.748Z,25.92
2018-03-03T11:33:39.238Z,27.90
2018-03-03T11:35:41.688Z,27.87
2018-03-03T11:37:44.216Z,27.70
2018-03-03T11:39:46.691Z,27.08
2018-03-03T11:41:49.165Z,29.73
2018-03-03T11:43:51.670Z,28.15
2018-03-03T11:45:54.130Z,28.27
2018-03-03T11:47:56.637Z,28.90
2018-03-03T11:49:59.150Z,28.12
2018-03-03T11:52:01.652Z,28.70
2018-03-03T11:54:04.103Z,28.58
2018-03-03T11:56:06.568Z,27.85
2018-03-03T11:58:09.046Z,26.15
2018-03-03T12:00:11.559Z,26.83
2018-03-03T12:02:14.042Z,29.50
2018-03-03T12:04:16.497Z,27.95
2018-03-03T12:06:19.017Z,29.12
2018-03-03T12:08:21.521Z,28.10
2018-03-03T12:10:24.016Z,30.35
2018-03-03T12:12:26.462Z,29.80
2018-03-03T12:14:28.995Z,23.10
2018-03-03T12:16:31.498Z,28.42
2018-03-03T12:18:33.972Z,27.85
2018-03-03T12:20:36.412Z,28.77
2018-03-03T12:22:38.931Z,30.40
2018-03-03T12:24:41.462Z,29.37
2018-03-03T12:26:43.972Z,28.02
2018-03-03T12:28:46.481Z,27.10
2018-03-03T12:30:49.033Z,29.02
2018-03-03T12:32:51.518Z,28.90
2018-03-03T12:34:54.032Z,27.40
2018-03-03T12:36:56.545Z,28.70
2018-03-03T12:38:58.988Z,26.17
2018-03-03T12:41:01.474Z,29.83
2018-03-03T12:43:03.957Z,29.20
2018-03-03T12:45:06.439Z,27.58
2018-03-03T12:47:09.004Z,28.15
2018-03-03T12:49:11.504Z,28.00
2018-03-03T12:51:14.008Z,28.38
2018-03-03T12:53:16.561Z,27.92
2018-03-03T12:55:19.033Z,23.42
2018-03-03T12:57:21.524Z,27.20
2018-03-03T12:59:24.008Z,30.85
2018-03-03T13:01:26.549Z,26.35
2018-03-03T13:03:29.128Z,25.40
2018-03-03T13:05:31.632Z,27.48
2018-03-03T13:07:34.214Z,29.27
2018-03-03T13:09:36.664Z,25.65
2018-03-03T13:11:39.140Z,28.77
2018-03-03T13:13:41.645Z,27.05
2018-03-03T13:15:44.094Z,29.23
2018-03-03T13:17:46.603Z,29.00
2018-03-03T13:19:49.174Z,28.90
2018-03-03T13:21:51.772Z,26.85
2018-03-03T13:23:54.277Z,28.52
2018-03-03T13:25:56.802Z,30.80
2018-03-03T13:27:59.274Z,26.10
2018-03-03T13:30:01.865Z,26.55
2018-03-03T13:32:04.323Z,27.30
2018-03-03T13:34:06.848Z,30.08
2018-03-03T13:36:10.613Z,28.65
2018-03-03T13:38:13.277Z,28.40
2018-03-03T13:40:15.766Z,29.92
2018-03-03T13:42:18.281Z,24.98
2018-03-03T13:44:20.830Z,29.23
2018-03-03T13:46:23.428Z,29.83
2018-03-03T13:48:25.930Z,29.48
2018-03-03T13:50:28.450Z,29.60
2018-03-03T13:52:31.020Z,28.92
2018-03-03T13:54:33.514Z,30.10
2018-03-03T13:56:35.978Z,31.48
2018-03-03T13:58:38.506Z,28.52
2018-03-03T14:00:40.975Z,28.92
2018-03-03T14:02:43.476Z,29.55
2018-03-03T14:04:46.075Z,30.73
2018-03-03T14:06:48.616Z,30.83
2018-03-03T14:08:51.164Z,30.75
2018-03-03T14:10:53.670Z,29.50
2018-03-03T14:12:56.145Z,30.90
2018-03-03T14:14:58.661Z,29.37
2018-03-03T14:17:01.240Z,30.10
2018-03-03T14:19:03.782Z,30.05
2018-03-03T14:21:06.268Z,30.23
2018-03-03T14:23:08.814Z,31.87
2018-03-03T14:25:11.410Z,29.63
2018-03-03T14:27:13.878Z,29.00
2018-03-03T14:29:16.463Z,29.63
2018-03-03T14:31:18.914Z,28.27
2018-03-03T14:33:21.465Z,27.98
2018-03-03T14:35:23.955Z,30.80
2018-03-03T14:37:26.491Z,29.87
2018-03-03T14:39:29.073Z,29.85
2018-03-03T14:41:31.561Z,27.67
2018-03-03T14:43:34.134Z,28.85
2018-03-03T14:45:36.619Z,30.35
2018-03-03T14:47:39.116Z,27.65
2018-03-03T14:49:41.635Z,28.87
2018-03-03T14:51:44.235Z,26.08
2018-03-03T14:53:46.713Z,28.83
2018-03-03T14:55:49.233Z,30.62
2018-03-03T14:57:51.755Z,26.55
2018-03-03T14:59:54.220Z,28.10
2018-03-03T15:01:56.799Z,28.70
2018-03-03T15:03:59.398Z,28.42
2018-03-03T15:06:01.944Z,24.75
2018-03-03T15:08:04.415Z,28.48
2018-03-03T15:10:06.889Z,25.92
2018-03-03T15:12:09.393Z,29.90
2018-03-03T15:14:12.808Z,27.67
2018-03-03T15:16:15.308Z,28.50
2018-03-03T15:18:17.842Z,29.85
2018-03-03T15:20:20.354Z,31.92
2018-03-03T15:22:22.874Z,27.33
2018-03-03T15:24:25.510Z,27.33
2018-03-03T15:26:27.994Z,26.98
2018-03-03T15:28:30.482Z,28.55
2018-03-03T15:30:32.981Z,28.02
2018-03-03T15:32:35.454Z,27.25
2018-03-03T15:34:38.038Z,30.17
2018-03-03T15:36:40.704Z,28.10
2018-03-03T15:38:43.180Z,30.05
2018-03-03T15:40:45.646Z,27.92
2018-03-03T15:42:48.139Z,29.23
2018-03-03T15:44:50.678Z,30.70
2018-03-03T15:46:53.261Z,28.87
2018-03-03T15:48:55.875Z,28.95
2018-03-03T15:50:58.482Z,28.77
2018-03-03T15:53:00.972Z,29.45
2018-03-03T15:55:03.485Z,28.23
2018-03-03T15:57:06.065Z,28.67
2018-03-03T15:59:08.545Z,29.42
2018-03-03T16:01:11.028Z,27.45
2018-03-03T16:03:13.754Z,29.20
2018-03-03T16:05:16.338Z,29.33
2018-03-03T16:07:18.841Z,28.48
2018-03-03T16:09:21.427Z,28.20
2018-03-03T16:11:23.890Z,30.35
2018-03-03T16:13:26.511Z,29.65
2018-03-03T16:15:29.010Z,29.23
2018-03-03T16:17:31.607Z,30.55
2018-03-03T16:19:34.103Z,28.25
2018-03-03T16:21:36.604Z,28.90
2018-03-03T16:23:39.061Z,27.70
2018-03-03T16:25:41.578Z,26.23
2018-03-03T16:27:44.069Z,28.85
2018-03-03T16:29:46.629Z,27.55
2018-03-03T16:31:49.140Z,28.75
2018-03-03T16:33:51.615Z,26.60
2018-03-03T16:35:54.192Z,26.92
2018-03-03T16:37:56.701Z,26.25
2018-03-03T16:39:59.265Z,28.05
2018-03-03T16:42:01.751Z,28.48
2018-03-03T16:44:04.288Z,26.45
2018-03-03T16:46:06.760Z,25.60
2018-03-03T16:48:09.284Z,27.42
2018-03-03T16:50:11.782Z,28.10
2018-03-03T16:52:14.294Z,26.85
2018-03-03T16:54:16.760Z,27.40
2018-03-03T16:56:19.236Z,25.80
2018-03-03T16:58:22.611Z,28.67
2018-03-03T17:00:25.286Z,26.80
2018-03-03T17:02:27.794Z,27.90
2018-03-03T17:04:30.282Z,26.80
2018-03-03T17:06:32.845Z,26.00
2018-03-03T17:08:35.305Z,24.75
2018-03-03T17:10:37.860Z,25.83
2018-03-03T17:12:40.356Z,25.85
2018-03-03T17:14:42.972Z,26.62
2018-03-03T17:16:45.492Z,28.08
2018-03-03T17:18:47.968Z,27.75
2018-03-03T17:20:50.543Z,27.02
2018-03-03T17:22:53.036Z,26.02
2018-03-03T17:24:55.615Z,27.25
2018-03-03T17:26:58.068Z,29.67
2018-03-03T17:29:00.599Z,26.50
2018-03-03T17:31:03.194Z,28.25
2018-03-03T17:33:05.694Z,29.98
2018-03-03T17:35:08.154Z,30.12
2018-03-03T17:37:10.730Z,28.33
2018-03-03T17:39:13.191Z,27.23
2018-03-03T17:41:15.705Z,28.12
2018-03-03T17:43:18.185Z,29.75
2018-03-03T17:45:20.675Z,27.87
2018-03-03T17:47:23.209Z,29.08
2018-03-03T17:49:25.721Z,27.58
2018-03-03T17:51:28.255Z,27.45
2018-03-03T17:53:30.772Z,26.48
2018-03-03T17:55:33.415Z,25.98
2018-03-03T17:57:36.012Z,26.55
2018-03-03T17:59:38.475Z,27.77
2018-03-03T18:01:41.000Z,26.50
2018-03-03T18:03:43.494Z,26.60
2018-03-03T18:05:46.023Z,27.45
2018-03-03T18:07:48.561Z,27.50
2018-03-03T18:09:51.096Z,29.87
2018-03-03T18:11:59.619Z,29.48
2018-03-03T18:14:02.090Z,30.10
2018-03-03T18:16:04.696Z,27.80
2018-03-03T18:18:07.156Z,29.83
2018-03-03T18:20:09.690Z,30.95
2018-03-03T18:22:12.155Z,30.02
2018-03-03T18:24:26.534Z,31.35
2018-03-03T18:26:29.148Z,28.50
2018-03-03T18:28:31.621Z,27.58
2018-03-03T18:30:34.162Z,29.92
2018-03-03T18:32:36.682Z,29.40
2018-03-03T18:34:39.366Z,29.12
2018-03-03T18:36:41.859Z,27.30
2018-03-03T18:38:44.381Z,28.35
2018-03-03T18:40:46.983Z,29.55
2018-03-03T18:42:49.432Z,30.58
2018-03-03T18:44:52.097Z,28.20
2018-03-03T18:46:54.782Z,30.17
2018-03-03T18:48:57.357Z,29.67
2018-03-03T18:50:59.835Z,30.75
2018-03-03T18:53:02.348Z,28.58
2018-03-03T18:55:04.862Z,30.05
2018-03-03T18:57:07.374Z,30.02
2018-03-03T18:59:09.906Z,28.55
2018-03-03T19:01:12.396Z,28.85
2018-03-03T19:03:14.926Z,31.42
2018-03-03T19:05:17.378Z,30.30
2018-03-03T19:07:19.914Z,29.70
2018-03-03T19:09:22.452Z,31.48
2018-03-03T19:11:24.911Z,31.12
2018-03-03T19:13:27.418Z,30.08
2018-03-03T19:15:31.076Z,30.75
2018-03-03T19:17:33.578Z,31.67
2018-03-03T19:19:36.205Z,31.60
2018-03-03T19:21:38.758Z,31.60
2018-03-03T19:23:41.292Z,29.77
2018-03-03T19:25:43.824Z,26.58
2018-03-03T19:27:46.354Z,32.20
2018-03-03T19:29:48.874Z,33.08
2018-03-03T19:31:51.383Z,28.42
2018-03-03T19:33:53.939Z,29.55
2018-03-03T19:35:56.429Z,29.98
2018-03-03T19:37:58.882Z,30.50
2018-03-03T19:40:01.378Z,28.38
2018-03-03T19:42:03.939Z,28.85
2018-03-03T19:44:06.456Z,28.87
2018-03-03T19:46:08.997Z,28.87
2018-03-03T19:48:11.639Z,29.27
2018-03-03T19:50:14.124Z,28.35
2018-03-03T19:52:16.597Z,27.62
2018-03-03T19:54:19.097Z,29.60
2018-03-03T19:56:21.588Z,28.73
2018-03-03T19:58:24.159Z,27.37
2018-03-03T20:00:26.672Z,28.27
2018-03-03T20:02:29.162Z,28.58
2018-03-03T20:04:31.768Z,26.42
2018-03-03T20:06:34.269Z,27.17
2018-03-03T20:08:37.672Z,27.98
2018-03-03T20:10:40.270Z,25.27
2018-03-03T20:12:42.824Z,21.35
2018-03-03T20:14:45.342Z,25.42
2018-03-03T20:16:47.889Z,26.33
2018-03-03T20:18:50.345Z,23.60
2018-03-03T20:20:52.911Z,24.87
2018-03-03T20:22:55.367Z,24.30
2018-03-03T20:24:57.862Z,25.08
2018-03-03T20:27:00.353Z,18.62
2018-03-03T20:29:02.883Z,24.35
2018-03-03T20:31:05.518Z,21.50
2018-03-03T20:33:09.060Z,23.35
2018-03-03T20:35:11.579Z,23.30
2018-03-03T20:37:14.219Z,21.02
2018-03-03T20:39:16.726Z,20.48
2018-03-03T20:41:19.290Z,23.60
2018-03-03T20:43:21.863Z,21.80
2018-03-03T20:45:24.359Z,23.90
2018-03-03T20:47:26.893Z,20.48
2018-03-03T20:49:29.413Z,23.23
2018-03-03T20:51:31.879Z,23.65
2018-03-03T20:53:34.354Z,23.38
2018-03-03T20:55:36.878Z,21.55
2018-03-03T20:57:39.375Z,20.92
2018-03-03T20:59:41.845Z,22.77
2018-03-03T21:01:44.359Z,24.50
2018-03-03T21:03:46.915Z,24.92
2018-03-03T21:05:49.464Z,22.25
2018-03-03T21:07:51.944Z,23.20
2018-03-03T21:09:54.473Z,22.77
2018-03-03T21:12:02.428Z,21.85
2018-03-03T21:14:04.927Z,23.23
2018-03-03T21:16:07.413Z,23.35
2018-03-03T21:18:09.953Z,24.12
2018-03-03T21:20:12.484Z,23.83
2018-03-03T21:22:15.010Z,22.90
2018-03-03T21:24:17.604Z,24.10
2018-03-03T21:26:20.088Z,23.35
2018-03-03T21:28:22.558Z,23.40
2018-03-03T21:30:25.060Z,23.00
2018-03-03T21:32:27.578Z,19.52
2018-03-03T21:34:30.269Z,23.05
2018-03-03T21:36:32.873Z,23.08
2018-03-03T21:38:35.375Z,25.10
2018-03-03T21:40:37.874Z,24.10
2018-03-03T21:42:40.445Z,23.10
2018-03-03T21:44:42.954Z,23.87
2018-03-03T21:46:45.459Z,23.48
2018-03-03T21:48:47.939Z,26.33
2018-03-03T21:50:50.467Z,23.35
2018-03-03T21:52:53.026Z,25.67
2018-03-03T21:54:55.540Z,23.65
2018-03-03T21:56:58.044Z,24.40
2018-03-03T21:59:00.563Z,24.10
2018-03-03T22:01:03.050Z,23.25
2018-03-03T22:03:05.570Z,25.35
2018-03-03T22:05:08.143Z,22.60
2018-03-03T22:07:11.593Z,23.65
2018-03-03T22:09:14.075Z,24.55
2018-03-03T22:11:16.577Z,22.62
2018-03-03T22:13:19.151Z,23.17
2018-03-03T22:15:21.668Z,22.50
2018-03-03T22:17:24.252Z,24.77
2018-03-03T22:19:26.849Z,24.25
2018-03-03T22:21:29.310Z,24.02
2018-03-03T22:23:31.790Z,25.10
2018-03-03T22:25:34.320Z,23.92
2018-03-03T22:27:36.921Z,24.75
2018-03-03T22:29:39.425Z,25.62
2018-03-03T22:31:41.959Z,24.55
2018-03-03T22:33:44.478Z,25.02
2018-03-03T22:35:46.945Z,24.12
2018-03-03T22:37:49.414Z,22.40
2018-03-03T22:39:51.945Z,24.67
2018-03-03T22:41:54.474Z,25.88
2018-03-03T22:43:56.956Z,24.25
2018-03-03T22:45:59.429Z,23.90
2018-03-03T22:48:01.959Z,23.45
2018-03-03T22:50:04.430Z,23.92
2018-03-03T22:52:06.946Z,24.63
2018-03-03T22:54:09.558Z,24.05
2018-03-03T22:56:12.220Z,24.17
2018-03-03T22:58:14.844Z,21.67
2018-03-03T23:00:17.309Z,23.40
2018-03-03T23:02:19.826Z,25.20
2018-03-03T23:04:22.371Z,24.65
2018-03-03T23:06:24.868Z,22.77
2018-03-03T23:08:27.355Z,23.50
2018-03-03T23:10:29.849Z,22.92
2018-03-03T23:12:32.323Z,23.67
2018-03-03T23:14:34.830Z,23.35
2018-03-03T23:16:37.290Z,22.35
2018-03-03T23:18:39.820Z,22.75
2018-03-03T23:20:42.356Z,22.40
2018-03-03T23:22:44.910Z,23.25
2018-03-03T23:24:47.555Z,21.00
2018-03-03T23:26:50.010Z,22.95
2018-03-03T23:28:52.532Z,22.58
2018-03-03T23:30:55.019Z,24.05
2018-03-03T23:32:57.520Z,23.60
2018-03-03T23:34:59.989Z,20.95
2018-03-03T23:37:02.510Z,22.15
2018-03-03T23:39:05.004Z,22.60
2018-03-03T23:41:07.465Z,23.80
2018-03-03T23:43:09.991Z,24.25
2018-03-03T23:45:12.467Z,22.50
2018-03-03T23:47:14.950Z,22.98
2018-03-03T23:49:17.434Z,23.40
2018-03-03T23:51:19.946Z,23.00
2018-03-03T23:53:23.811Z,24.10
2018-03-03T23:55:26.280Z,23.27
2018-03-03T23:57:28.874Z,23.77
2018-03-03T23:59:31.405Z,23.30
